Time;durP1;ratioP1;P1;durP2;ratioP2;P2;SDS_P1;SDS_P2;PMS_P1;PMS_P2;Temp;Humidity;BMP_temperature;BMP_pressure;BME280_temperature;BME280_humidity;BME280_pressure;Samples;Min_cycle;Max_cycle;Signal;HPM_P1;HPM_P2
2023/08/24 00:01:07;;;;;;;14.90;8.05;;;;;;;17.97;100.00;101464.38;5084062;28;20487;-77
2023/08/24 00:03:33;;;;;;;14.02;8.30;;;;;;;17.97;100.00;101473.59;5082002;28;20407;-77
2023/08/24 00:05:58;;;;;;;16.10;8.70;;;;;;;17.96;100.00;101466.28;5072401;28;20031;-77
2023/08/24 00:08:24;;;;;;;21.73;9.38;;;;;;;17.96;100.00;101470.97;5089469;28;20037;-77
2023/08/24 00:10:49;;;;;;;15.50;8.35;;;;;;;17.90;100.00;101472.44;5089503;28;20402;-77
2023/08/24 00:13:15;;;;;;;15.43;8.52;;;;;;;17.89;100.00;101473.50;5056115;28;20194;-77
2023/08/24 00:15:41;;;;;;;19.83;9.18;;;;;;;17.74;100.00;101467.56;5089694;28;20110;-77
2023/08/24 00:18:07;;;;;;;16.35;8.30;;;;;;;17.72;100.00;101466.81;5088891;28;20028;-76
2023/08/24 00:20:33;;;;;;;13.73;8.00;;;;;;;17.71;100.00;101466.97;5091809;28;20467;-77
2023/08/24 00:22:59;;;;;;;17.17;8.48;;;;;;;17.67;100.00;101458.09;5091090;28;20030;-77
2023/08/24 00:25:25;;;;;;;21.67;9.65;;;;;;;17.68;100.00;101462.63;5090874;28;20027;-77
2023/08/24 00:27:54;;;;;;;19.95;8.65;;;;;;;17.54;100.00;101469.53;5069087;28;20471;-77
2023/08/24 00:30:20;;;;;;;15.70;8.93;;;;;;;17.58;100.00;101476.50;5086073;28;20107;-77
2023/08/24 00:32:45;;;;;;;16.52;8.63;;;;;;;17.77;100.00;101470.03;5089905;28;20112;-77
2023/08/24 00:35:11;;;;;;;15.07;8.35;;;;;;;17.80;100.00;101471.59;5075222;28;20097;-77
2023/08/24 00:37:37;;;;;;;19.35;9.00;;;;;;;17.82;100.00;101470.44;5087400;28;20047;-77
2023/08/24 00:40:08;;;;;;;15.95;8.50;;;;;;;17.75;100.00;101469.28;5087150;28;20012;-77
2023/08/24 00:42:38;;;;;;;17.42;9.68;;;;;;;17.73;100.00;101471.34;5089999;28;20070;-77
2023/08/24 00:45:04;;;;;;;16.33;8.95;;;;;;;17.73;100.00;101465.81;5086253;28;20080;-77
2023/08/24 00:47:30;;;;;;;15.95;9.75;;;;;;;17.63;100.00;101459.44;5071207;28;20036;-77
2023/08/24 00:49:55;;;;;;;14.50;8.63;;;;;;;17.60;100.00;101456.97;5090995;28;20020;-77
2023/08/24 00:52:21;;;;;;;21.92;9.00;;;;;;;17.53;100.00;101445.66;5085414;28;20085;-77
2023/08/24 00:54:47;;;;;;;16.67;9.48;;;;;;;17.44;100.00;101444.63;5088787;28;20043;-77
2023/08/24 00:57:13;;;;;;;21.50;8.98;;;;;;;17.34;100.00;101443.81;5088640;28;20127;-77
2023/08/24 00:59:39;;;;;;;14.05;8.80;;;;;;;17.33;100.00;101446.72;5090230;28;20028;-76
2023/08/24 01:02:05;;;;;;;19.08;8.60;;;;;;;17.39;100.00;101444.22;5089650;28;20118;-77
2023/08/24 01:04:30;;;;;;;17.33;9.63;;;;;;;17.43;100.00;101440.16;5086846;28;20043;-77
2023/08/24 01:06:55;;;;;;;19.48;9.15;;;;;;;17.58;100.00;101445.19;5072584;28;20028;-77
2023/08/24 01:09:22;;;;;;;15.07;8.40;;;;;;;17.61;100.00;101442.97;5089815;28;20040;-81
2023/08/24 01:12:04;;;;;;;14.75;9.23;;;;;;;17.45;100.00;101443.63;5069894;28;20024;-82
2023/08/24 01:14:40;;;;;;;15.37;9.20;;;;;;;17.50;100.00;101457.03;5089991;28;20082;-81
2023/08/24 01:17:09;;;;;;;19.05;9.70;;;;;;;17.59;100.00;101453.34;5081907;28;20042;-82
2023/08/24 01:19:44;;;;;;;18.45;9.43;;;;;;;17.51;100.00;101442.16;5076960;28;20120;-82
2023/08/24 01:22:28;;;;;;;19.65;9.02;;;;;;;17.58;100.00;101445.19;5087094;28;20491;-82
2023/08/24 01:25:04;;;;;;;18.25;9.85;;;;;;;17.62;100.00;101452.16;5090780;28;20020;-81
2023/08/24 01:27:34;;;;;;;20.88;9.60;;;;;;;17.43;100.00;101450.31;5081446;28;20035;-81
2023/08/24 01:30:01;;;;;;;16.77;9.73;;;;;;;17.48;100.00;101441.56;5088607;28;20039;-82
2023/08/24 01:32:26;;;;;;;18.80;9.73;;;;;;;17.41;100.00;101438.53;5085961;28;20024;-81
2023/08/24 01:34:52;;;;;;;20.90;10.52;;;;;;;17.30;100.00;101438.72;5087884;28;20020;-81
2023/08/24 01:37:17;;;;;;;22.63;10.68;;;;;;;17.30;100.00;101441.50;5083417;28;20074;-82
2023/08/24 01:39:50;;;;;;;20.02;10.98;;;;;;;17.29;100.00;101439.78;5071755;28;20082;-82
2023/08/24 01:42:21;;;;;;;18.92;10.95;;;;;;;17.30;100.00;101442.38;5087695;28;20107;-81
2023/08/24 01:44:50;;;;;;;20.83;10.95;;;;;;;17.25;100.00;101437.31;5088557;28;20044;-82
2023/08/24 01:47:17;;;;;;;22.17;10.63;;;;;;;17.21;100.00;101421.13;5084805;28;20035;-81
2023/08/24 01:49:43;;;;;;;17.50;10.32;;;;;;;17.34;100.00;101427.22;5083708;28;20364;-81
2023/08/24 01:52:10;;;;;;;13.82;9.35;;;;;;;17.43;100.00;101415.22;5080822;28;20522;-81
2023/08/24 01:54:35;;;;;;;16.27;10.05;;;;;;;17.43;100.00;101420.75;5089734;28;20492;-82
2023/08/24 01:57:01;;;;;;;20.20;10.23;;;;;;;17.33;100.00;101419.94;5087580;28;20024;-82
2023/08/24 01:59:27;;;;;;;19.67;10.55;;;;;;;17.38;100.00;101423.13;5075170;28;20729;-82
2023/08/24 02:01:52;;;;;;;19.73;9.57;;;;;;;17.34;100.00;101424.44;5087652;28;20024;-82
2023/08/24 02:04:17;;;;;;;19.80;10.52;;;;;;;17.27;100.00;101428.84;5067646;28;20033;-81
2023/08/24 02:06:43;;;;;;;17.85;9.77;;;;;;;17.32;100.00;101425.63;5080072;28;20548;-82
2023/08/24 02:09:08;;;;;;;17.40;10.98;;;;;;;17.35;100.00;101417.00;5081937;28;20036;-82
2023/08/24 02:11:34;;;;;;;17.67;10.77;;;;;;;17.40;100.00;101414.66;5083549;28;20032;-81
2023/08/24 02:13:59;;;;;;;15.75;10.18;;;;;;;17.41;100.00;101421.94;5069710;28;20028;-81
2023/08/24 02:16:24;;;;;;;18.63;11.40;;;;;;;17.47;100.00;101426.88;5078895;28;20498;-82
2023/08/24 02:18:55;;;;;;;20.42;11.05;;;;;;;17.53;100.00;101429.03;5072798;28;20035;-78
2023/08/24 02:21:21;;;;;;;16.70;11.13;;;;;;;17.64;100.00;101427.94;5086241;28;20504;-77
2023/08/24 02:23:46;;;;;;;21.42;10.68;;;;;;;17.64;100.00;101444.56;5084521;28;20028;-77
2023/08/24 02:26:12;;;;;;;26.88;11.60;;;;;;;17.53;100.00;101431.78;5087572;28;20125;-77
2023/08/24 02:28:38;;;;;;;19.67;10.02;;;;;;;17.60;100.00;101413.53;5083863;28;20024;-77
2023/08/24 02:31:04;;;;;;;21.67;11.63;;;;;;;17.61;100.00;101395.91;5088019;28;20036;-77
2023/08/24 02:33:30;;;;;;;27.67;10.65;;;;;;;17.52;100.00;101395.94;5090421;28;20031;-77
2023/08/24 02:35:56;;;;;;;21.50;11.13;;;;;;;17.53;100.00;101415.19;5088310;28;20039;-77
2023/08/24 02:38:23;;;;;;;17.65;10.50;;;;;;;17.53;100.00;101405.97;5087090;28;20398;-77
2023/08/24 02:40:49;;;;;;;19.13;10.77;;;;;;;17.57;100.00;101399.13;5089405;28;20103;-77
2023/08/24 02:43:14;;;;;;;18.58;11.05;;;;;;;17.56;100.00;101406.56;5082917;28;20075;-77
2023/08/24 02:45:40;;;;;;;28.30;10.75;;;;;;;17.62;100.00;101413.38;5045524;28;20541;-77
2023/08/24 02:48:05;;;;;;;20.13;11.35;;;;;;;17.72;100.00;101416.09;5062506;28;20035;-77
2023/08/24 02:50:31;;;;;;;24.67;11.70;;;;;;;17.64;100.00;101414.09;5064794;28;20032;-77
2023/08/24 02:52:58;;;;;;;22.60;12.10;;;;;;;17.72;100.00;101403.09;5052897;28;20493;-77
2023/08/24 02:55:24;;;;;;;28.75;11.82;;;;;;;17.73;100.00;101404.88;5042740;28;20036;-77
2023/08/24 02:57:49;;;;;;;28.10;12.02;;;;;;;17.74;100.00;101405.72;5066397;28;20024;-77
2023/08/24 03:00:16;;;;;;;17.17;10.43;;;;;;;17.73;100.00;101415.09;5063598;28;20036;-77
2023/08/24 03:02:42;;;;;;;23.25;11.60;;;;;;;17.69;100.00;101410.88;5069142;28;20012;-77
2023/08/24 03:05:09;;;;;;;18.95;12.23;;;;;;;17.71;100.00;101408.81;5063814;28;20032;-77
2023/08/24 03:07:39;;;;;;;27.65;12.60;;;;;;;17.77;100.00;101403.53;5058338;28;20024;-77
2023/08/24 03:10:04;;;;;;;21.80;12.60;;;;;;;17.73;100.00;101393.78;5064265;28;20493;-77
2023/08/24 03:12:31;;;;;;;32.92;14.32;;;;;;;17.61;100.00;101400.56;5068093;28;20060;-77
2023/08/24 03:14:56;;;;;;;23.75;12.93;;;;;;;17.55;100.00;101384.56;5049174;28;20437;-77
2023/08/24 03:17:23;;;;;;;23.73;13.25;;;;;;;17.57;100.00;101372.31;5064579;28;20058;-77
2023/08/24 03:19:48;;;;;;;21.50;12.60;;;;;;;17.72;100.00;101377.31;5062098;28;20029;-77
2023/08/24 03:22:13;;;;;;;22.90;14.30;;;;;;;17.66;100.00;101362.22;5031626;28;20098;-77
2023/08/24 03:24:39;;;;;;;24.63;14.05;;;;;;;17.76;100.00;101357.47;5047833;28;20092;-77
2023/08/24 03:27:04;;;;;;;25.73;15.35;;;;;;;17.60;100.00;101355.38;5064170;28;20029;-76
2023/08/24 03:29:30;;;;;;;32.33;17.58;;;;;;;17.52;100.00;101337.81;5029595;28;20399;-81
2023/08/24 03:31:55;;;;;;;41.97;18.23;;;;;;;17.42;100.00;101341.50;5064316;28;20131;-82
2023/08/24 03:34:20;;;;;;;45.30;19.38;;;;;;;17.53;100.00;101325.69;5045697;28;20169;-82
2023/08/24 03:36:47;;;;;;;40.22;19.90;;;;;;;17.42;100.00;101322.13;5047270;28;20132;-82
2023/08/24 03:39:13;;;;;;;35.85;18.60;;;;;;;17.37;100.00;101318.09;5065460;28;20063;-81
2023/08/24 03:41:39;;;;;;;35.38;19.05;;;;;;;17.40;100.00;101328.84;5066659;28;20028;-82
2023/08/24 03:44:04;;;;;;;33.58;18.23;;;;;;;17.42;100.00;101322.13;5055047;28;20048;-82
2023/08/24 03:46:30;;;;;;;34.10;20.45;;;;;;;17.43;100.00;101312.78;5080526;28;20114;-82
2023/08/24 03:48:55;;;;;;;36.25;18.77;;;;;;;17.32;100.00;101299.16;5086247;28;20479;-82
2023/08/24 03:51:20;;;;;;;29.88;18.85;;;;;;;17.33;100.00;101287.06;5081930;28;20113;-82
2023/08/24 03:53:46;;;;;;;35.03;19.48;;;;;;;17.36;100.00;101275.66;5082025;28;20039;-81
2023/08/24 03:56:11;;;;;;;39.38;20.60;;;;;;;17.32;100.00;101263.19;5054692;28;20133;-82
2023/08/24 03:58:37;;;;;;;39.53;19.05;;;;;;;17.34;100.00;101252.81;5077132;28;20191;-81
2023/08/24 04:01:02;;;;;;;36.65;19.63;;;;;;;17.35;100.00;101237.06;5087415;28;20047;-81
2023/08/24 04:03:28;;;;;;;34.95;19.45;;;;;;;17.34;100.00;101229.81;5067737;28;20123;-81
2023/08/24 04:05:55;;;;;;;32.80;18.52;;;;;;;17.34;100.00;101230.66;5078229;28;20237;-80
2023/08/24 04:08:20;;;;;;;35.63;19.80;;;;;;;17.37;100.00;101218.44;5061655;28;20035;-80
2023/08/24 04:10:45;;;;;;;37.70;19.95;;;;;;;17.36;100.00;101203.69;5054740;28;20032;-80
2023/08/24 04:13:11;;;;;;;34.72;19.52;;;;;;;17.42;100.00;101214.16;5085397;28;20128;-81
2023/08/24 04:15:36;;;;;;;34.60;20.23;;;;;;;17.50;100.00;101213.38;5070432;28;20053;-80
2023/08/24 04:18:02;;;;;;;41.05;20.33;;;;;;;17.55;100.00;101229.50;5080728;28;20028;-80
2023/08/24 04:20:27;;;;;;;34.70;20.30;;;;;;;17.64;100.00;101231.31;5079272;28;20521;-84
2023/08/24 04:22:55;;;;;;;38.70;20.67;;;;;;;17.60;100.00;101222.47;5051221;28;20506;-81
2023/08/24 04:25:20;;;;;;;29.95;18.77;;;;;;;17.70;100.00;101213.22;5083546;28;20502;-82
2023/08/24 04:27:46;;;;;;;33.45;19.30;;;;;;;17.71;100.00;101204.75;5086978;28;20107;-82
2023/08/24 04:30:12;;;;;;;33.92;19.55;;;;;;;17.68;100.00;101207.81;5066546;28;20040;-82
2023/08/24 04:32:37;;;;;;;37.25;18.92;;;;;;;17.71;100.00;101215.81;5066972;28;20094;-82
2023/08/24 04:35:03;;;;;;;37.20;19.17;;;;;;;17.68;100.00;101235.53;5080364;28;20059;-82
2023/08/24 04:37:28;;;;;;;33.55;18.75;;;;;;;17.68;100.00;101246.59;5080491;28;20031;-81
2023/08/24 04:39:55;;;;;;;31.98;19.83;;;;;;;17.67;100.00;101250.38;5086601;28;20433;-77
2023/08/24 04:42:21;;;;;;;39.08;20.75;;;;;;;17.72;100.00;101264.63;5082327;28;20073;-77
2023/08/24 04:44:47;;;;;;;40.50;21.05;;;;;;;17.69;100.00;101264.94;5049571;28;20060;-77
2023/08/24 04:47:14;;;;;;;32.78;19.80;;;;;;;17.74;100.00;101261.69;5065963;28;20062;-77
2023/08/24 04:49:39;;;;;;;33.00;20.20;;;;;;;17.75;100.00;101266.22;5087816;28;20423;-79
2023/08/24 04:52:05;;;;;;;36.40;21.02;;;;;;;17.75;100.00;101264.31;5069686;28;20059;-77
2023/08/24 04:54:30;;;;;;;40.45;20.85;;;;;;;17.80;100.00;101258.31;5073126;28;20039;-78
2023/08/24 04:56:56;;;;;;;32.90;21.48;;;;;;;17.79;100.00;101264.84;5072626;28;20028;-78
2023/08/24 04:59:21;;;;;;;32.55;21.13;;;;;;;17.84;100.00;101268.06;5067177;28;20481;-77
2023/08/24 05:01:46;;;;;;;38.33;21.90;;;;;;;17.87;100.00;101264.06;5083515;28;20073;-77
2023/08/24 05:04:12;;;;;;;40.20;20.60;;;;;;;17.89;100.00;101259.25;5054955;28;20025;-77
2023/08/24 05:06:37;;;;;;;34.58;21.38;;;;;;;17.88;100.00;101263.94;5089215;28;20020;-77
2023/08/24 05:09:03;;;;;;;40.58;21.70;;;;;;;17.92;100.00;101264.50;5054678;28;20075;-77
2023/08/24 05:11:32;;;;;;;44.05;22.38;;;;;;;17.88;100.00;101263.94;5065296;28;20024;-78
2023/08/24 05:13:57;;;;;;;41.53;21.30;;;;;;;17.80;100.00;101256.38;5075329;28;20036;-78
2023/08/24 05:16:23;;;;;;;40.35;20.83;;;;;;;17.84;100.00;101254.19;5085939;28;20059;-77
2023/08/24 05:18:48;;;;;;;30.95;21.95;;;;;;;17.84;100.00;101262.50;5093171;28;20032;-78
2023/08/24 05:21:14;;;;;;;33.38;21.20;;;;;;;17.83;100.00;101253.31;5066990;28;20114;-78
2023/08/24 05:23:39;;;;;;;43.10;24.50;;;;;;;17.82;100.00;101254.34;5090744;28;20036;-78
2023/08/24 05:26:04;;;;;;;42.45;24.63;;;;;;;17.83;100.00;101258.84;5080908;28;20060;-78
2023/08/24 05:28:31;;;;;;;40.42;24.10;;;;;;;17.81;100.00;101260.06;5073255;28;20108;-78
2023/08/24 05:30:57;;;;;;;46.05;25.80;;;;;;;17.95;100.00;101276.13;5070390;28;20032;-78
2023/08/24 05:33:25;;;;;;;43.78;25.23;;;;;;;17.98;100.00;101272.16;5092089;28;20020;-78
2023/08/24 05:35:51;;;;;;;43.20;26.88;;;;;;;18.06;100.00;101276.94;5081468;28;20689;-80
2023/08/24 05:38:18;;;;;;;41.88;25.65;;;;;;;18.08;100.00;101274.84;5070775;28;20560;-78
2023/08/24 05:40:46;;;;;;;51.15;27.08;;;;;;;18.03;100.00;101274.47;5086037;28;20024;-78
2023/08/24 05:43:11;;;;;;;46.30;26.90;;;;;;;17.97;100.00;101271.31;5091484;28;20463;-78
2023/08/24 05:45:40;;;;;;;41.75;26.38;;;;;;;18.00;100.00;101272.88;5089228;28;20127;-78
2023/08/24 05:48:06;;;;;;;44.15;26.58;;;;;;;18.04;100.00;101266.00;5074162;28;20039;-78
2023/08/24 05:50:32;;;;;;;46.55;26.67;;;;;;;18.10;100.00;101270.91;5091111;28;20016;-82
2023/08/24 05:52:57;;;;;;;42.00;26.83;;;;;;;18.13;100.00;101267.78;5072795;28;20028;-82
2023/08/24 05:55:25;;;;;;;43.28;25.55;;;;;;;18.23;100.00;101247.44;5078352;28;20030;-82
2023/08/24 05:57:50;;;;;;;41.67;25.85;;;;;;;18.24;100.00;101238.94;5087626;28;21278;-81
2023/08/24 06:00:16;;;;;;;42.25;25.63;;;;;;;18.27;100.00;101223.91;5081857;28;20118;-82
2023/08/24 06:02:41;;;;;;;43.13;24.80;;;;;;;18.38;100.00;101215.28;5085180;28;20027;-82
2023/08/24 06:05:07;;;;;;;42.15;22.67;;;;;;;18.65;100.00;101221.69;5088089;28;20043;-82
2023/08/24 06:07:36;;;;;;;39.35;23.80;;;;;;;18.91;100.00;101219.75;5081958;28;20045;-85
2023/08/24 06:10:01;;;;;;;33.83;22.85;;;;;;;19.19;100.00;101216.75;5083461;28;20562;-83
2023/08/24 06:12:27;;;;;;;41.60;23.33;;;;;;;19.15;100.00;101201.47;5081659;28;20124;-83
2023/08/24 06:14:52;;;;;;;33.45;20.50;;;;;;;19.29;100.00;101202.69;5081577;28;20028;-83
2023/08/24 06:17:17;;;;;;;36.25;22.63;;;;;;;19.34;100.00;101193.88;5083596;28;20097;-83
2023/08/24 06:19:44;;;;;;;34.80;20.98;;;;;;;19.71;100.00;101186.94;5083573;28;20028;-82
2023/08/24 06:22:09;;;;;;;39.10;21.30;;;;;;;19.64;100.00;101186.78;5087329;28;20032;-83
2023/08/24 06:24:35;;;;;;;35.65;19.95;;;;;;;19.96;100.00;101183.16;5080781;28;20397;-84
2023/08/24 06:27:01;;;;;;;30.45;19.00;;;;;;;20.09;100.00;101165.09;5078308;28;20098;-83
2023/08/24 06:29:30;;;;;;;31.42;19.63;;;;;;;20.33;100.00;101170.59;5086112;28;20028;-86
2023/08/24 06:31:55;;;;;;;34.15;18.95;;;;;;;20.78;100.00;101167.34;5084410;28;20498;-83
2023/08/24 06:34:21;;;;;;;27.30;17.70;;;;;;;20.78;100.00;101168.19;5082338;28;20039;-87
2023/08/24 06:36:47;;;;;;;30.63;19.38;;;;;;;20.91;100.00;101165.69;5078867;28;20020;-83
2023/08/24 06:39:12;;;;;;;31.75;18.17;;;;;;;20.95;100.00;101173.66;5083678;28;20032;-83
2023/08/24 06:41:38;;;;;;;36.35;18.73;;;;;;;21.13;100.00;101178.97;5082575;28;20032;-83
2023/08/24 06:44:05;;;;;;;30.13;18.08;;;;;;;21.29;100.00;101176.94;5069306;28;20056;-83
2023/08/24 06:46:31;;;;;;;29.27;16.50;;;;;;;21.38;100.00;101190.81;5081440;28;20028;-84
2023/08/24 06:48:57;;;;;;;24.77;16.48;;;;;;;21.52;100.00;101175.25;5072158;28;20089;-83
2023/08/24 06:51:22;;;;;;;28.73;17.45;;;;;;;21.59;100.00;101188.25;5084800;28;20058;-83
2023/08/24 06:53:48;;;;;;;26.00;17.52;;;;;;;22.15;100.00;101185.16;5086289;28;20111;-83
2023/08/24 06:56:14;;;;;;;20.58;16.50;;;;;;;22.42;100.00;101184.75;5079285;28;20188;-82
2023/08/24 06:58:40;;;;;;;25.52;16.63;;;;;;;22.51;100.00;101180.78;5083053;28;20107;-82
2023/08/24 07:01:07;;;;;;;20.83;14.68;;;;;;;22.64;100.00;101182.91;5082579;28;20174;-79
2023/08/24 07:03:35;;;;;;;26.25;14.80;;;;;;;22.31;100.00;101177.69;5085846;28;20032;-78
2023/08/24 07:06:00;;;;;;;26.77;13.85;;;;;;;22.51;100.00;101177.97;5086469;28;20028;-78
2023/08/24 07:08:26;;;;;;;22.67;14.50;;;;;;;22.92;100.00;101174.69;5080656;28;20077;-79
2023/08/24 07:10:51;;;;;;;25.75;13.80;;;;;;;23.25;100.00;101180.72;5066987;28;20017;-78
2023/08/24 07:13:16;;;;;;;25.35;13.88;;;;;;;23.16;100.00;101176.31;5082552;28;20043;-78
2023/08/24 07:15:42;;;;;;;23.15;13.90;;;;;;;23.79;100.00;101181.25;5085726;28;20032;-78
2023/08/24 07:18:08;;;;;;;21.65;13.13;;;;;;;23.86;100.00;101176.63;5084984;28;20085;-78
2023/08/24 07:20:34;;;;;;;25.13;13.88;;;;;;;23.88;100.00;101168.03;5087418;28;20474;-78
2023/08/24 07:23:00;;;;;;;19.33;12.73;;;;;;;23.61;100.00;101171.44;5082636;28;20031;-78
2023/08/24 07:25:27;;;;;;;30.02;13.18;;;;;;;24.22;100.00;101170.03;5087536;28;20057;-78
2023/08/24 07:27:57;;;;;;;21.10;12.27;;;;;;;24.69;100.00;101168.41;5084564;28;20108;-78
2023/08/24 07:30:23;;;;;;;22.83;11.82;;;;;;;24.09;100.00;101176.38;5088738;28;20034;-78
2023/08/24 07:32:48;;;;;;;18.73;11.65;;;;;;;24.10;100.00;101171.66;5066490;28;20025;-78
2023/08/24 07:35:14;;;;;;;20.05;11.60;;;;;;;25.02;100.00;101173.31;5088022;28;20119;-78
2023/08/24 07:37:40;;;;;;;21.60;11.23;;;;;;;24.67;100.00;101173.34;5082148;28;20028;-78
2023/08/24 07:40:08;;;;;;;19.80;10.85;;;;;;;25.45;100.00;101170.22;5070946;28;20089;-78
2023/08/24 07:42:43;;;;;;;27.55;10.40;;;;;;;25.63;100.00;101174.34;5084741;28;20024;-78
2023/08/24 07:45:09;;;;;;;19.35;10.45;;;;;;;25.88;100.00;101160.56;5083003;28;20124;-78
2023/08/24 07:47:34;;;;;;;20.80;10.60;;;;;;;25.26;100.00;101152.25;5057598;28;20135;-78
2023/08/24 07:50:00;;;;;;;20.08;9.82;;;;;;;25.53;100.00;101157.06;5074900;28;20032;-78
2023/08/24 07:52:27;;;;;;;19.40;10.48;;;;;;;25.24;100.00;101151.59;5080212;28;20036;-78
2023/08/24 07:54:52;;;;;;;21.17;11.45;;;;;;;25.26;100.00;101149.44;5084401;28;20030;-78
2023/08/24 07:57:18;;;;;;;16.52;10.40;;;;;;;26.11;100.00;101157.34;5074208;28;20032;-78
2023/08/24 07:59:44;;;;;;;16.17;10.32;;;;;;;26.40;100.00;101152.34;5071392;28;20028;-78
2023/08/24 08:02:10;;;;;;;17.38;10.40;;;;;;;25.45;100.00;101146.94;5086761;28;20028;-78
2023/08/24 08:04:35;;;;;;;16.00;10.73;;;;;;;25.35;100.00;101133.34;5083278;28;20077;-78
2023/08/24 08:07:01;;;;;;;23.27;10.13;;;;;;;25.80;100.00;101139.19;5080770;28;20029;-78
2023/08/24 08:09:26;;;;;;;21.00;10.95;;;;;;;25.84;100.00;101145.22;5084001;28;20395;-78
2023/08/24 08:11:51;;;;;;;24.65;11.27;;;;;;;26.03;100.00;101143.53;5064614;28;20047;-78
2023/08/24 08:14:17;;;;;;;17.17;10.68;;;;;;;25.94;100.00;101142.00;5082586;28;20071;-78
2023/08/24 08:16:42;;;;;;;13.68;9.98;;;;;;;26.12;100.00;101145.06;5089018;28;20127;-78
2023/08/24 08:19:08;;;;;;;20.73;9.70;;;;;;;26.18;100.00;101135.75;5083132;28;20025;-78
2023/08/24 08:21:33;;;;;;;21.30;10.55;;;;;;;26.26;100.00;101151.50;5064992;28;20051;-78
2023/08/24 08:23:58;;;;;;;17.15;9.77;;;;;;;26.46;100.00;101142.16;5065297;28;20529;-78
2023/08/24 08:26:24;;;;;;;16.55;9.00;;;;;;;27.06;100.00;101145.66;5083024;28;20032;-78
2023/08/24 08:28:50;;;;;;;12.43;8.27;;;;;;;27.04;100.00;101139.41;5084797;28;20028;-78
2023/08/24 08:31:15;;;;;;;15.27;7.85;;;;;;;26.81;100.00;101139.06;5090218;28;20123;-78
2023/08/24 08:33:40;;;;;;;16.02;7.95;;;;;;;26.40;100.00;101141.97;5068994;28;20025;-78
2023/08/24 08:36:06;;;;;;;15.98;7.50;;;;;;;26.96;100.00;101131.22;5092136;28;20115;-78
2023/08/24 08:38:32;;;;;;;12.52;7.47;;;;;;;27.29;100.00;101125.44;5088481;28;20078;-78
2023/08/24 08:41:03;;;;;;;15.10;7.78;;;;;;;26.67;100.00;101133.50;5088720;28;20036;-78
2023/08/24 08:43:30;;;;;;;13.43;7.45;;;;;;;27.55;100.00;101129.16;5086594;28;20028;-78
2023/08/24 08:45:56;;;;;;;13.02;6.97;;;;;;;28.04;97.98;101118.19;5091881;28;20056;-78
2023/08/24 08:48:22;;;;;;;12.95;6.68;;;;;;;27.26;100.00;101117.41;5090245;28;20043;-78
2023/08/24 08:50:55;;;;;;;10.73;7.03;;;;;;;26.91;100.00;101103.78;5093501;28;20027;-78
2023/08/24 08:53:22;;;;;;;12.90;6.40;;;;;;;27.32;100.00;101094.06;5106043;28;20024;-78
2023/08/24 08:55:51;;;;;;;12.60;6.35;;;;;;;27.29;99.13;101088.88;5082795;28;20033;-78
2023/08/24 08:58:17;;;;;;;12.90;6.82;;;;;;;26.43;100.00;101081.69;5089244;28;20052;-78
2023/08/24 09:00:43;;;;;;;10.10;5.93;;;;;;;26.81;100.00;101068.81;5088389;28;20028;-78
2023/08/24 09:03:09;;;;;;;14.98;6.22;;;;;;;26.99;100.00;101056.81;5090393;28;20036;-78
2023/08/24 09:05:37;;;;;;;19.73;6.63;;;;;;;26.89;100.00;101051.69;5090564;28;20036;-78
2023/08/24 09:08:05;;;;;;;12.52;6.10;;;;;;;27.26;100.00;101032.22;5082161;28;20020;-78
2023/08/24 09:10:31;;;;;;;12.45;5.47;;;;;;;27.00;100.00;101030.44;5084365;28;20025;-78
2023/08/24 09:12:56;;;;;;;14.38;6.38;;;;;;;27.58;97.41;101035.00;5090160;28;20049;-78
2023/08/24 09:15:28;;;;;;;9.18;5.30;;;;;;;27.03;100.00;101016.78;5070542;28;20121;-78
2023/08/24 09:17:56;;;;;;;;;;;;;;;27.46;97.64;101007.59;5072339;28;20033;-78
2023/08/24 09:20:21;;;;;;;18.95;5.20;;;;;;;27.44;97.80;100997.69;5087550;28;19923;-78
2023/08/24 09:22:47;;;;;;;10.57;4.55;;;;;;;27.18;100.00;100988.34;5088614;28;20040;-78
2023/08/24 09:25:12;;;;;;;15.27;4.85;;;;;;;27.71;100.00;100989.00;5092395;28;20427;-78
2023/08/24 09:27:38;;;;;;;11.30;5.78;;;;;;;27.55;100.00;100976.38;5090768;28;20090;-78
2023/08/24 09:30:05;;;;;;;21.67;5.95;;;;;;;27.87;98.88;100977.97;5068976;28;20020;-78
2023/08/24 09:32:31;;;;;;;16.00;5.70;;;;;;;27.60;98.79;100983.03;5084042;28;20146;-78
2023/08/24 09:35:05;;;;;;;12.43;4.95;;;;;;;27.47;96.90;100978.41;5087466;28;20029;-78
2023/08/24 09:37:35;;;;;;;12.55;5.75;;;;;;;27.42;100.00;100981.03;5071220;28;20050;-78
2023/08/24 09:40:07;;;;;;;12.30;5.97;;;;;;;27.29;100.00;100982.03;5086105;28;20032;-78
2023/08/24 09:42:41;;;;;;;16.48;6.45;;;;;;;27.23;99.50;100996.97;5086665;28;20028;-78
2023/08/24 09:45:09;;;;;;;10.90;4.65;;;;;;;27.64;98.21;101003.13;5087588;28;20051;-78
2023/08/24 09:47:36;;;;;;;10.27;4.85;;;;;;;27.65;98.04;101010.47;5085255;28;20045;-78
2023/08/24 09:50:02;;;;;;;11.18;5.07;;;;;;;27.85;94.49;101028.00;5088030;28;20115;-78
2023/08/24 09:52:32;;;;;;;13.13;5.22;;;;;;;27.82;95.17;101041.69;5084230;28;20088;-78
2023/08/24 09:55:07;;;;;;;16.77;5.80;;;;;;;28.03;91.73;101051.69;5086736;28;20027;-78
2023/08/24 09:57:39;;;;;;;13.75;5.22;;;;;;;27.91;94.03;101048.75;5089291;28;20020;-78
2023/08/24 10:00:15;;;;;;;10.32;5.32;;;;;;;27.73;95.41;101051.50;5081577;28;20099;-78
2023/08/24 10:02:49;;;;;;;13.02;5.53;;;;;;;27.92;92.70;101052.44;5084396;28;20035;-78
2023/08/24 10:05:20;;;;;;;11.32;4.50;;;;;;;27.45;93.40;101050.03;5083880;28;20035;-78
2023/08/24 10:07:55;;;;;;;13.52;4.53;;;;;;;27.27;95.82;101054.47;5085954;28;20059;-78
2023/08/24 10:10:24;;;;;;;10.70;4.35;;;;;;;27.17;95.11;101056.94;5088324;28;20019;-78
2023/08/24 10:12:57;;;;;;;11.07;5.05;;;;;;;26.92;96.75;101062.47;5083924;28;20080;-78
2023/08/24 10:15:24;;;;;;;13.23;5.30;;;;;;;26.92;98.33;101060.53;5088031;28;20031;-78
2023/08/24 10:17:51;;;;;;;14.27;4.97;;;;;;;26.94;98.16;101068.72;5082907;28;20029;-78
2023/08/24 10:20:19;;;;;;;8.88;4.32;;;;;;;26.90;99.91;101065.50;5091576;28;20116;-78
2023/08/24 10:22:47;;;;;;;6.57;3.85;;;;;;;27.19;97.34;101063.19;5086474;28;20130;-78
2023/08/24 10:25:13;;;;;;;14.38;3.90;;;;;;;26.89;98.21;101062.94;5087079;28;20047;-78
2023/08/24 10:27:43;;;;;;;10.10;3.55;;;;;;;26.78;98.54;101053.28;5085734;28;20028;-78
2023/08/24 10:30:12;;;;;;;7.15;4.25;;;;;;;26.67;98.27;101034.31;5087933;28;20027;-78
2023/08/24 10:32:40;;;;;;;11.95;4.13;;;;;;;27.05;97.51;101030.63;5088340;28;20028;-78
2023/08/24 10:35:07;;;;;;;8.45;4.15;;;;;;;26.63;99.57;101031.06;5088353;28;20482;-78
2023/08/24 10:37:34;;;;;;;12.50;4.65;;;;;;;26.51;100.00;101032.84;5071414;28;20118;-78
2023/08/24 10:39:59;;;;;;;13.50;4.30;;;;;;;26.46;100.00;101033.50;5081285;28;20024;-78
2023/08/24 10:42:26;;;;;;;10.20;4.97;;;;;;;26.54;100.00;101041.69;5074142;28;20055;-78
2023/08/24 10:44:53;;;;;;;10.23;4.80;;;;;;;26.48;100.00;101047.31;5086927;28;20416;-78
2023/08/24 10:47:19;;;;;;;9.52;5.00;;;;;;;26.14;100.00;101057.81;5066611;28;20054;-78
2023/08/24 10:50:05;;;;;;;11.20;5.68;;;;;;;25.96;100.00;101061.31;5077035;28;20036;-77
2023/08/24 10:52:33;;;;;;;8.93;5.18;;;;;;;25.68;100.00;101073.63;5088132;28;20039;-78
2023/08/24 10:55:02;;;;;;;16.20;5.40;;;;;;;25.65;100.00;101063.69;5085430;28;20024;-78
2023/08/24 10:57:37;;;;;;;9.90;5.05;;;;;;;25.60;100.00;101065.41;5087423;28;20023;-78
2023/08/24 11:00:13;;;;;;;10.85;4.88;;;;;;;25.62;100.00;101080.09;5088694;28;20045;-78
2023/08/24 11:02:44;;;;;;;18.35;4.85;;;;;;;25.60;100.00;101085.91;5079849;28;20048;-78
2023/08/24 11:05:35;;;;;;;13.25;5.25;;;;;;;25.48;100.00;101088.50;5087137;28;20474;-78